Time;durP1;ratioP1;P1;durP2;ratioP2;P2;SDS_P1;SDS_P2;PMS_P1;PMS_P2;Temp;Humidity;BMP_temperature;BMP_pressure;BME280_temperature;BME280_humidity;BME280_pressure;Samples;Min_cycle;Max_cycle;Signal;HPM_P1;HPM_P2
2023/11/07 00:00:27;;;;;;;22.57;21.13;;;;;;;;;;5123754;28;20439;-82
2023/11/07 00:02:55;;;;;;;22.07;20.77;;;;;;;;;;5124547;28;20455;-82
2023/11/07 00:05:22;;;;;;;22.50;20.83;;;;;;;;;;5123078;28;20521;-81
2023/11/07 00:07:49;;;;;;;22.53;21.03;;;;;;;;;;5124129;28;20496;-81
2023/11/07 00:10:17;;;;;;;23.47;21.73;;;;;;;;;;5122950;28;20448;-81
2023/11/07 00:12:44;;;;;;;23.23;21.30;;;;;;;;;;5123891;28;20447;-82
2023/11/07 00:15:13;;;;;;;23.60;21.67;;;;;;;;;;5122797;28;20407;-81
2023/11/07 00:17:40;;;;;;;21.80;20.47;;;;;;;;;;5124137;28;20495;-81
2023/11/07 00:20:09;;;;;;;22.57;21.00;;;;;;;;;;5123381;28;20472;-81
2023/11/07 00:22:36;;;;;;;22.00;20.57;;;;;;;;;;5123438;28;20448;-81
2023/11/07 00:25:04;;;;;;;22.10;20.50;;;;;;;;;;5123083;28;20452;-81
2023/11/07 00:27:32;;;;;;;22.50;21.03;;;;;;;;;;5124356;28;20562;-81
2023/11/07 00:29:59;;;;;;;22.40;21.00;;;;;;;;;;5122920;28;20462;-81
2023/11/07 00:32:26;;;;;;;21.67;20.13;;;;;;;;;;5123583;28;20435;-80
2023/11/07 00:34:53;;;;;;;22.53;21.03;;;;;;;;;;5133814;27;20458;-82
2023/11/07 00:37:21;;;;;;;21.40;19.90;;;;;;;;;;5143846;27;20466;-81
2023/11/07 00:39:48;;;;;;;21.93;20.00;;;;;;;;;;5137746;27;20459;-82
2023/11/07 00:42:15;;;;;;;22.07;20.57;;;;;;;;;;5125248;27;20922;-81
2023/11/07 00:44:44;;;;;;;20.57;19.40;;;;;;;;;;5122465;28;20411;-81
2023/11/07 00:47:11;;;;;;;22.20;20.57;;;;;;;;;;5123535;28;21044;-81
2023/11/07 00:49:38;;;;;;;22.60;21.10;;;;;;;;;;5123406;28;20433;-81
2023/11/07 00:52:06;;;;;;;21.33;19.93;;;;;;;;;;5123574;27;20443;-81
2023/11/07 00:54:33;;;;;;;20.77;19.67;;;;;;;;;;5122168;28;20463;-82
2023/11/07 00:57:00;;;;;;;20.37;19.07;;;;;;;;;;5122517;28;20463;-81
2023/11/07 00:59:27;;;;;;;21.70;19.87;;;;;;;;;;5132132;27;20477;-81
2023/11/07 01:01:55;;;;;;;21.50;20.07;;;;;;;;;;5123326;27;20456;-80
2023/11/07 01:04:23;;;;;;;20.23;18.93;;;;;;;;;;5130898;27;20545;-81
2023/11/07 01:06:50;;;;;;;22.70;20.77;;;;;;;;;;5123821;27;20460;-80
2023/11/07 01:09:19;;;;;;;21.17;19.70;;;;;;;;;;5123019;28;20440;-81
2023/11/07 01:11:46;;;;;;;21.00;19.53;;;;;;;;;;5125232;27;20459;-81
2023/11/07 01:14:13;;;;;;;20.77;19.27;;;;;;;;;;5126291;27;20963;-82
2023/11/07 01:16:40;;;;;;;21.27;19.80;;;;;;;;;;5122090;28;20427;-81
2023/11/07 01:19:09;;;;;;;20.80;19.40;;;;;;;;;;5121619;28;20499;-82
2023/11/07 01:21:36;;;;;;;21.87;20.20;;;;;;;;;;5121911;28;20535;-82
2023/11/07 01:24:04;;;;;;;20.83;19.33;;;;;;;;;;5141963;27;20454;-81
2023/11/07 01:26:31;;;;;;;21.80;20.40;;;;;;;;;;5142366;27;20482;-81
2023/11/07 01:28:58;;;;;;;20.70;19.50;;;;;;;;;;5142716;27;20778;-82
2023/11/07 01:31:25;;;;;;;19.90;18.50;;;;;;;;;;5142947;27;20447;-81
2023/11/07 01:33:52;;;;;;;20.23;18.93;;;;;;;;;;5141941;27;20446;-81
2023/11/07 01:36:21;;;;;;;19.83;18.63;;;;;;;;;;5141598;27;20428;-81
2023/11/07 01:38:48;;;;;;;19.50;18.33;;;;;;;;;;5141821;27;20479;-81
2023/11/07 01:41:15;;;;;;;19.30;18.10;;;;;;;;;;5141282;27;20438;-80
2023/11/07 01:43:42;;;;;;;18.00;17.10;;;;;;;;;;5142366;27;20447;-82
2023/11/07 01:46:10;;;;;;;20.03;18.77;;;;;;;;;;5141077;27;20565;-81
2023/11/07 01:48:37;;;;;;;19.27;18.00;;;;;;;;;;5142011;27;20528;-82
2023/11/07 01:51:04;;;;;;;19.50;18.47;;;;;;;;;;5142904;27;20426;-82
2023/11/07 01:53:33;;;;;;;20.67;19.17;;;;;;;;;;5143270;27;20458;-82
2023/11/07 01:56:00;;;;;;;19.97;18.87;;;;;;;;;;5143031;27;20440;-81
2023/11/07 01:58:27;;;;;;;22.83;20.70;;;;;;;;;;5127072;28;20488;-81
2023/11/07 02:00:55;;;;;;;20.27;18.87;;;;;;;;;;5122095;28;20436;-82
2023/11/07 02:03:23;;;;;;;19.67;18.57;;;;;;;;;;5122112;28;20452;-82
2023/11/07 02:05:51;;;;;;;19.50;18.30;;;;;;;;;;5121895;28;20454;-82
2023/11/07 02:08:18;;;;;;;20.60;18.63;;;;;;;;;;5122073;28;20467;-82
2023/11/07 02:10:47;;;;;;;19.60;18.50;;;;;;;;;;5121490;28;20419;-82
2023/11/07 02:13:14;;;;;;;18.50;17.70;;;;;;;;;;5121948;28;20535;-82
2023/11/07 02:15:41;;;;;;;19.47;18.20;;;;;;;;;;5122561;28;20447;-83
2023/11/07 02:18:08;;;;;;;21.07;19.77;;;;;;;;;;5121986;28;20483;-82
2023/11/07 02:20:36;;;;;;;20.93;19.40;;;;;;;;;;5122439;28;20395;-82
2023/11/07 02:23:04;;;;;;;19.03;17.97;;;;;;;;;;5122561;28;20469;-81
2023/11/07 02:25:33;;;;;;;19.90;18.87;;;;;;;;;;5121321;28;20428;-82
2023/11/07 02:28:01;;;;;;;19.90;18.57;;;;;;;;;;5121802;28;20464;-82
2023/11/07 02:30:28;;;;;;;18.43;17.43;;;;;;;;;;5122220;28;20420;-82
2023/11/07 02:35:59;;;;;;;18.50;17.60;;;;;;;;;;5117934;28;20879;-82
2023/11/07 02:38:26;;;;;;;18.50;17.60;;;;;;;;;;5121647;28;20470;-82
2023/11/07 02:40:54;;;;;;;18.67;17.57;;;;;;;;;;5122575;28;20437;-82
2023/11/07 02:43:21;;;;;;;19.10;17.80;;;;;;;;;;5122484;28;20430;-82
2023/11/07 02:45:49;;;;;;;18.47;17.37;;;;;;;;;;5122100;28;20466;-81
2023/11/07 02:48:16;;;;;;;19.13;17.97;;;;;;;;;;5121498;28;20443;-82
2023/11/07 02:50:44;;;;;;;19.10;18.10;;;;;;;;;;5121554;28;20406;-82
2023/11/07 02:53:11;;;;;;;20.13;18.70;;;;;;;;;;5121641;28;20438;-82
2023/11/07 02:55:38;;;;;;;19.80;18.80;;;;;;;;;;5121022;28;20431;-82
2023/11/07 02:58:07;;;;;;;21.00;19.10;;;;;;;;;;5121858;28;20529;-82
2023/11/07 03:00:34;;;;;;;19.10;17.60;;;;;;;;;;5121892;28;20410;-82
2023/11/07 03:03:01;;;;;;;19.40;18.30;;;;;;;;;;5121783;28;20444;-83
2023/11/07 03:05:28;;;;;;;20.07;19.07;;;;;;;;;;5120968;28;20503;-82
2023/11/07 03:07:55;;;;;;;19.30;18.00;;;;;;;;;;5132672;28;20445;-82
2023/11/07 03:10:23;;;;;;;19.50;18.30;;;;;;;;;;5142051;28;20425;-82
2023/11/07 03:12:50;;;;;;;18.20;17.23;;;;;;;;;;5141293;27;20447;-81
2023/11/07 03:15:18;;;;;;;19.70;18.40;;;;;;;;;;5144875;27;20443;-82
2023/11/07 03:17:46;;;;;;;19.70;18.47;;;;;;;;;;5145809;27;20466;-82
2023/11/07 03:20:14;;;;;;;19.77;18.20;;;;;;;;;;5145484;27;20457;-82
2023/11/07 03:22:41;;;;;;;19.17;17.90;;;;;;;;;;5145813;27;20446;-82
2023/11/07 03:25:09;;;;;;;18.70;17.40;;;;;;;;;;5145101;27;20800;-83
2023/11/07 03:27:38;;;;;;;19.03;17.63;;;;;;;;;;5145345;27;20504;-82
2023/11/07 03:30:06;;;;;;;18.53;17.63;;;;;;;;;;5145644;27;21084;-83
2023/11/07 03:32:35;;;;;;;18.20;17.23;;;;;;;;;;5146069;27;20433;-82
2023/11/07 03:35:02;;;;;;;18.03;17.00;;;;;;;;;;5144616;27;20467;-83
2023/11/07 03:37:29;;;;;;;17.57;16.67;;;;;;;;;;5130347;27;20493;-82
2023/11/07 03:39:56;;;;;;;19.27;17.97;;;;;;;;;;5123615;28;20479;-83
2023/11/07 03:42:24;;;;;;;18.50;17.33;;;;;;;;;;5125543;27;20500;-82
2023/11/07 03:44:51;;;;;;;18.77;17.67;;;;;;;;;;5141802;27;20504;-81
2023/11/07 03:47:18;;;;;;;19.30;18.20;;;;;;;;;;5144411;27;20540;-81
2023/11/07 03:49:46;;;;;;;18.73;17.43;;;;;;;;;;5145161;27;20413;-81
2023/11/07 03:52:14;;;;;;;17.97;17.10;;;;;;;;;;5143842;27;20951;-82
2023/11/07 03:54:41;;;;;;;18.67;17.37;;;;;;;;;;5128790;27;20444;-82
2023/11/07 03:57:08;;;;;;;18.07;17.00;;;;;;;;;;5124305;28;20948;-82
2023/11/07 03:59:35;;;;;;;18.70;17.60;;;;;;;;;;5123990;28;20463;-83
2023/11/07 04:02:04;;;;;;;17.60;16.70;;;;;;;;;;5125087;28;20793;-82
2023/11/07 04:04:32;;;;;;;17.97;16.97;;;;;;;;;;5123151;28;20518;-82
2023/11/07 04:07:00;;;;;;;18.10;17.00;;;;;;;;;;5123089;28;20458;-82
2023/11/07 04:09:27;;;;;;;17.93;16.93;;;;;;;;;;5123636;28;20923;-81
2023/11/07 04:11:54;;;;;;;17.00;16.10;;;;;;;;;;5124004;28;20432;-82
2023/11/07 04:14:21;;;;;;;18.13;17.20;;;;;;;;;;5122963;28;20531;-82
2023/11/07 04:16:49;;;;;;;17.87;16.43;;;;;;;;;;5124862;28;20426;-81
2023/11/07 04:19:16;;;;;;;17.90;16.90;;;;;;;;;;5122587;28;20475;-82
2023/11/07 04:21:43;;;;;;;18.90;17.63;;;;;;;;;;5123561;28;20440;-82
2023/11/07 04:24:12;;;;;;;39.17;35.23;;;;;;;;;;5125891;27;20418;-81
2023/11/07 04:26:40;;;;;;;18.07;17.00;;;;;;;;;;5137634;27;20521;-82
2023/11/07 04:29:08;;;;;;;17.57;16.70;;;;;;;;;;5124449;28;20436;-82
2023/11/07 04:31:37;;;;;;;16.97;16.27;;;;;;;;;;5142847;27;20443;-82
2023/11/07 04:34:09;;;;;;;17.40;16.50;;;;;;;;;;5143343;27;20462;-82
2023/11/07 04:36:37;;;;;;;17.60;16.70;;;;;;;;;;5143848;27;20482;-82
2023/11/07 04:39:05;;;;;;;17.10;16.20;;;;;;;;;;5141086;27;20467;-82
2023/11/07 04:41:34;;;;;;;17.50;16.30;;;;;;;;;;5128890;27;20463;-82
2023/11/07 04:44:02;;;;;;;19.97;18.67;;;;;;;;;;5124109;27;20504;-82
2023/11/07 04:46:29;;;;;;;17.97;16.83;;;;;;;;;;5144628;27;20458;-81
2023/11/07 04:48:56;;;;;;;16.93;16.13;;;;;;;;;;5142815;27;20459;-83
2023/11/07 04:51:23;;;;;;;17.53;16.20;;;;;;;;;;5123405;28;20469;-82
2023/11/07 04:53:50;;;;;;;16.77;15.97;;;;;;;;;;5123072;28;20430;-83
2023/11/07 04:56:18;;;;;;;16.50;15.53;;;;;;;;;;5122711;28;20443;-82
2023/11/07 04:58:46;;;;;;;17.20;16.40;;;;;;;;;;5122842;28;20457;-83
2023/11/07 05:01:15;;;;;;;16.53;15.73;;;;;;;;;;5123176;28;20447;-82
2023/11/07 05:03:42;;;;;;;17.53;16.47;;;;;;;;;;5123610;28;20518;-82
2023/11/07 05:06:09;;;;;;;17.87;16.70;;;;;;;;;;5132144;27;20526;-82
2023/11/07 05:08:36;;;;;;;17.60;16.70;;;;;;;;;;5123457;28;20438;-82
2023/11/07 05:11:03;;;;;;;17.57;16.67;;;;;;;;;;5122734;28;20715;-83
2023/11/07 05:13:30;;;;;;;17.40;16.50;;;;;;;;;;5129851;27;20456;-82
2023/11/07 05:16:00;;;;;;;17.90;16.90;;;;;;;;;;5136984;27;20463;-82
2023/11/07 05:18:27;;;;;;;16.77;16.00;;;;;;;;;;5143191;27;20474;-82
2023/11/07 05:20:54;;;;;;;17.00;16.10;;;;;;;;;;5142863;27;20478;-83
2023/11/07 05:23:22;;;;;;;17.03;16.07;;;;;;;;;;5130372;27;20486;-82
2023/11/07 05:25:49;;;;;;;17.10;16.40;;;;;;;;;;5140264;27;20458;-82
2023/11/07 05:28:16;;;;;;;17.50;16.60;;;;;;;;;;5125085;27;20476;-82
2023/11/07 05:30:43;;;;;;;17.40;16.40;;;;;;;;;;5133292;27;20450;-82
2023/11/07 05:33:12;;;;;;;17.10;16.10;;;;;;;;;;5130371;27;20480;-82
2023/11/07 05:35:39;;;;;;;17.13;16.23;;;;;;;;;;5121887;28;20473;-82
2023/11/07 05:38:06;;;;;;;17.07;16.17;;;;;;;;;;5127727;27;20474;-82
2023/11/07 05:40:33;;;;;;;17.40;16.17;;;;;;;;;;5135247;27;20485;-82
2023/11/07 05:43:00;;;;;;;17.60;16.30;;;;;;;;;;5128028;27;20448;-82
2023/11/07 05:45:27;;;;;;;17.80;16.63;;;;;;;;;;5121369;27;20447;-82
2023/11/07 05:47:55;;;;;;;18.07;16.97;;;;;;;;;;5121626;28;21076;-82
2023/11/07 05:50:25;;;;;;;17.73;16.73;;;;;;;;;;5138139;27;20451;-82
2023/11/07 05:52:52;;;;;;;20.10;19.00;;;;;;;;;;5142815;27;20478;-82
2023/11/07 05:55:20;;;;;;;18.37;17.30;;;;;;;;;;5131321;27;20451;-82
2023/11/07 05:57:47;;;;;;;18.03;17.03;;;;;;;;;;5121816;28;20502;-82
2023/11/07 06:00:15;;;;;;;17.90;16.90;;;;;;;;;;5121478;28;20500;-83
2023/11/07 06:02:42;;;;;;;17.30;16.40;;;;;;;;;;5140172;28;20775;-82
2023/11/07 06:05:10;;;;;;;17.40;16.60;;;;;;;;;;5125918;28;20450;-82
2023/11/07 06:07:38;;;;;;;16.93;16.13;;;;;;;;;;5140871;27;20513;-81
2023/11/07 06:10:07;;;;;;;17.40;16.50;;;;;;;;;;5142881;28;20471;-82
2023/11/07 06:12:34;;;;;;;17.80;16.73;;;;;;;;;;5135907;28;20450;-83
2023/11/07 06:15:01;;;;;;;16.53;15.73;;;;;;;;;;5125173;28;20431;-82
2023/11/07 06:17:28;;;;;;;17.50;16.60;;;;;;;;;;5121988;28;20430;-81
2023/11/07 06:19:55;;;;;;;16.90;15.80;;;;;;;;;;5122451;28;20890;-82
2023/11/07 06:22:22;;;;;;;17.50;16.50;;;;;;;;;;5121081;28;20480;-82
2023/11/07 06:24:51;;;;;;;16.80;16.00;;;;;;;;;;5122009;28;20771;-81
2023/11/07 06:27:18;;;;;;;16.60;15.70;;;;;;;;;;5129069;28;20470;-82
2023/11/07 06:29:46;;;;;;;17.97;16.57;;;;;;;;;;5121695;28;20431;-81
2023/11/07 06:32:13;;;;;;;17.60;16.20;;;;;;;;;;5121362;28;20448;-82
2023/11/07 06:34:41;;;;;;;17.20;16.20;;;;;;;;;;5126738;27;20479;-82
2023/11/07 06:37:09;;;;;;;18.00;16.80;;;;;;;;;;5137060;28;20438;-82
2023/11/07 06:39:36;;;;;;;17.90;16.60;;;;;;;;;;5121024;28;20468;-82
2023/11/07 06:42:06;;;;;;;17.17;16.37;;;;;;;;;;5134183;28;20465;-82
2023/11/07 06:44:33;;;;;;;17.77;16.57;;;;;;;;;;5122893;28;20455;-81
2023/11/07 06:47:03;;;;;;;18.00;16.70;;;;;;;;;;5121872;28;20479;-81
2023/11/07 06:49:31;;;;;;;18.53;17.63;;;;;;;;;;5124970;28;20803;-81
2023/11/07 06:51:59;;;;;;;18.00;16.80;;;;;;;;;;5125888;28;20444;-81
2023/11/07 06:54:26;;;;;;;18.10;17.10;;;;;;;;;;5125452;28;20474;-82
2023/11/07 06:56:54;;;;;;;18.47;17.57;;;;;;;;;;5125661;28;20452;-82
2023/11/07 06:59:22;;;;;;;18.07;17.07;;;;;;;;;;5125891;28;20916;-81
2023/11/07 07:01:49;;;;;;;18.57;17.50;;;;;;;;;;5130260;27;20483;-82
2023/11/07 07:04:18;;;;;;;17.60;16.70;;;;;;;;;;5128748;27;20459;-82
2023/11/07 07:06:45;;;;;;;17.13;16.33;;;;;;;;;;5124125;27;20511;-81
2023/11/07 07:09:13;;;;;;;17.67;16.67;;;;;;;;;;5133278;27;20443;-82
2023/11/07 07:11:40;;;;;;;16.83;16.03;;;;;;;;;;5145984;27;21046;-82
2023/11/07 07:14:08;;;;;;;18.20;17.20;;;;;;;;;;5146073;27;20439;-81
2023/11/07 07:16:37;;;;;;;17.63;16.80;;;;;;;;;;5142847;27;20444;-81
2023/11/07 07:19:07;;;;;;;19.33;18.13;;;;;;;;;;5135068;27;20484;-81
2023/11/07 07:21:35;;;;;;;17.83;16.73;;;;;;;;;;5125622;28;20550;-82
2023/11/07 07:24:15;;;;;;;18.03;17.13;;;;;;;;;;5124342;28;20420;-84
2023/11/07 07:26:42;;;;;;;17.80;17.00;;;;;;;;;;5125412;28;20436;-81
2023/11/07 07:29:12;;;;;;;18.60;17.50;;;;;;;;;;5133453;27;20479;-82
2023/11/07 07:31:41;;;;;;;18.73;17.73;;;;;;;;;;5145815;27;20458;-80
2023/11/07 07:34:08;;;;;;;18.47;17.37;;;;;;;;;;5145220;27;21001;-82
2023/11/07 07:36:43;;;;;;;17.87;16.60;;;;;;;;;;5144026;27;20410;-81
2023/11/07 07:39:18;;;;;;;18.43;17.10;;;;;;;;;;5146248;27;20445;-82
2023/11/07 07:41:46;;;;;;;18.00;16.90;;;;;;;;;;5145724;27;20453;-81
2023/11/07 07:44:13;;;;;;;18.00;17.00;;;;;;;;;;5145242;27;20449;-82
2023/11/07 07:46:44;;;;;;;18.70;17.67;;;;;;;;;;5146141;27;20495;-82
2023/11/07 07:49:11;;;;;;;18.10;17.00;;;;;;;;;;5146560;27;20443;-82
2023/11/07 07:51:39;;;;;;;18.20;17.00;;;;;;;;;;5118977;27;20464;-77
2023/11/07 07:54:06;;;;;;;18.10;17.00;;;;;;;;;;5112194;28;20498;-77
2023/11/07 07:56:33;;;;;;;18.43;17.43;;;;;;;;;;5112963;28;20790;-77
2023/11/07 07:59:00;;;;;;;17.80;16.80;;;;;;;;;;5112635;28;20475;-77
2023/11/07 08:01:27;;;;;;;17.50;16.60;;;;;;;;;;5112464;28;20488;-77
2023/11/07 08:03:56;;;;;;;17.80;16.80;;;;;;;;;;5111807;28;20475;-76
2023/11/07 08:06:23;;;;;;;17.90;16.90;;;;;;;;;;5113498;28;20493;-77
2023/11/07 08:08:50;;;;;;;17.80;16.90;;;;;;;;;;5114758;28;20467;-82
2023/11/07 08:11:17;;;;;;;17.63;16.73;;;;;;;;;;5119572;27;20444;-78
2023/11/07 08:13:44;;;;;;;18.17;17.17;;;;;;;;;;5108147;27;20451;-77
2023/11/07 08:16:12;;;;;;;18.57;17.50;;;;;;;;;;5112039;27;20467;-77
2023/11/07 08:18:39;;;;;;;18.47;17.27;;;;;;;;;;5112525;28;20464;-78
2023/11/07 08:21:08;;;;;;;18.03;17.10;;;;;;;;;;5112787;28;20488;-78
2023/11/07 08:23:35;;;;;;;19.73;18.73;;;;;;;;;;5112297;28;20936;-77
2023/11/07 08:26:03;;;;;;;17.70;16.70;;;;;;;;;;5113734;27;20455;-78
2023/11/07 08:28:30;;;;;;;17.80;16.90;;;;;;;;;;5132345;27;20843;-76
2023/11/07 08:30:58;;;;;;;17.87;16.87;;;;;;;;;;5133535;27;20539;-78
2023/11/07 08:33:27;;;;;;;17.83;16.83;;;;;;;;;;5133143;27;20451;-78
2023/11/07 08:35:55;;;;;;;17.40;16.50;;;;;;;;;;5132579;27;20435;-77
2023/11/07 08:38:25;;;;;;;18.07;16.90;;;;;;;;;;5132353;27;20485;-78
2023/11/07 08:40:52;;;;;;;18.37;17.17;;;;;;;;;;5133146;27;20487;-77
2023/11/07 08:43:19;;;;;;;17.97;16.97;;;;;;;;;;5132871;27;20435;-77
2023/11/07 08:45:47;;;;;;;18.93;17.93;;;;;;;;;;5132246;27;20452;-78
2023/11/07 08:48:15;;;;;;;18.03;17.03;;;;;;;;;;5136088;27;20884;-81
2023/11/07 08:50:42;;;;;;;18.00;17.00;;;;;;;;;;5138332;27;20490;-81
2023/11/07 08:53:09;;;;;;;18.73;17.50;;;;;;;;;;5120643;28;20555;-76
2023/11/07 08:55:38;;;;;;;18.20;17.20;;;;;;;;;;5120860;27;20575;-77
2023/11/07 08:58:05;;;;;;;17.43;16.50;;;;;;;;;;5131155;27;20974;-76
2023/11/07 09:00:33;;;;;;;17.30;16.50;;;;;;;;;;5132571;27;20522;-77
2023/11/07 09:03:01;;;;;;;18.37;17.40;;;;;;;;;;5132559;27;20486;-78
2023/11/07 09:05:28;;;;;;;17.97;16.97;;;;;;;;;;5131833;27;20520;-78
2023/11/07 09:07:56;;;;;;;18.53;17.07;;;;;;;;;;5132936;27;20467;-77
2023/11/07 09:10:23;;;;;;;17.93;17.03;;;;;;;;;;5132225;27;20480;-78
2023/11/07 09:12:51;;;;;;;17.97;17.07;;;;;;;;;;5131271;27;21214;-78
2023/11/07 09:15:19;;;;;;;17.87;16.97;;;;;;;;;;5131468;27;20446;-77
2023/11/07 09:17:47;;;;;;;17.83;16.83;;;;;;;;;;5132423;27;20974;-78
2023/11/07 09:20:14;;;;;;;18.27;17.30;;;;;;;;;;5132207;27;20788;-77
2023/11/07 09:22:41;;;;;;;18.53;17.30;;;;;;;;;;5131629;27;20459;-78
2023/11/07 09:25:09;;;;;;;18.97;17.87;;;;;;;;;;5134280;27;20439;-83
2023/11/07 09:27:37;;;;;;;19.33;18.03;;;;;;;;;;5144973;27;20855;-84
2023/11/07 09:30:08;;;;;;;19.43;18.23;;;;;;;;;;5135789;27;20439;-78
2023/11/07 09:32:36;;;;;;;19.87;18.57;;;;;;;;;;5131741;27;20450;-78
2023/11/07 09:35:04;;;;;;;18.60;17.60;;;;;;;;;;5131021;27;20486;-78
2023/11/07 09:37:33;;;;;;;19.37;18.27;;;;;;;;;;5146651;27;20471;-84
2023/11/07 09:40:00;;;;;;;18.60;17.47;;;;;;;;;;5143172;27;20487;-77
2023/11/07 09:42:29;;;;;;;18.63;17.63;;;;;;;;;;5132698;27;20467;-79
2023/11/07 09:44:57;;;;;;;18.27;17.37;;;;;;;;;;5131190;27;20443;-79
2023/11/07 09:47:28;;;;;;;18.20;17.10;;;;;;;;;;5131440;27;20460;-78
2023/11/07 09:49:55;;;;;;;19.00;17.90;;;;;;;;;;5131230;27;20435;-77
2023/11/07 09:52:24;;;;;;;18.10;17.10;;;;;;;;;;5130871;27;20416;-78
2023/11/07 09:54:51;;;;;;;18.27;17.37;;;;;;;;;;5130847;27;20451;-78
2023/11/07 09:57:18;;;;;;;18.87;17.83;;;;;;;;;;5131194;27;20471;-78
2023/11/07 09:59:50;;;;;;;18.77;17.77;;;;;;;;;;5131093;27;20508;-77
2023/11/07 10:02:17;;;;;;;21.53;20.33;;;;;;;;;;5130694;27;20539;-78
2023/11/07 10:04:46;;;;;;;20.33;19.30;;;;;;;;;;5132346;28;20958;-83
2023/11/07 10:07:13;;;;;;;19.13;18.23;;;;;;;;;;5140348;28;20466;-83
2023/11/07 10:09:40;;;;;;;19.30;18.23;;;;;;;;;;5138832;28;20455;-82
2023/11/07 10:12:15;;;;;;;19.57;18.37;;;;;;;;;;5125495;27;21110;-82
2023/11/07 10:14:42;;;;;;;18.37;17.37;;;;;;;;;;5123575;28;20901;-81
2023/11/07 10:17:20;;;;;;;18.53;17.57;;;;;;;;;;5141393;28;20502;-84
2023/11/07 10:19:49;;;;;;;19.23;17.90;;;;;;;;;;5141078;28;20447;-84
2023/11/07 10:22:16;;;;;;;18.37;17.37;;;;;;;;;;5131357;28;20622;-84
2023/11/07 10:24:46;;;;;;;18.80;17.80;;;;;;;;;;5127213;27;20447;-84
2023/11/07 10:27:15;;;;;;;18.97;17.93;;;;;;;;;;5136762;27;20478;-84
2023/11/07 10:29:52;;;;;;;19.00;17.80;;;;;;;;;;5130698;27;21099;-77
2023/11/07 10:32:19;;;;;;;19.50;18.27;;;;;;;;;;5115014;28;20534;-77
2023/11/07 10:35:01;;;;;;;19.33;18.23;;;;;;;;;;5118440;27;20752;-78
2023/11/07 10:37:36;;;;;;;17.90;17.00;;;;;;;;;;5130043;27;20459;-78
2023/11/07 10:40:03;;;;;;;19.43;18.33;;;;;;;;;;5114027;28;20436;-78
2023/11/07 10:42:34;;;;;;;18.70;17.80;;;;;;;;;;5125009;27;20551;-83
2023/11/07 10:45:05;;;;;;;18.47;17.40;;;;;;;;;;5126661;27;20459;-83
2023/11/07 10:47:37;;;;;;;18.40;17.27;;;;;;;;;;5132617;27;20462;-78
2023/11/07 10:50:05;;;;;;;18.77;17.73;;;;;;;;;;5134809;27;20923;-78
2023/11/07 10:52:32;;;;;;;18.50;17.20;;;;;;;;;;5135598;27;20439;-78
2023/11/07 10:55:03;;;;;;;18.97;18.00;;;;;;;;;;5134809;27;20435;-78
2023/11/07 10:57:34;;;;;;;18.83;17.83;;;;;;;;;;5134844;27;20833;-77
2023/11/07 11:00:08;;;;;;;19.20;18.10;;;;;;;;;;5135297;27;20517;-77
2023/11/07 11:02:39;;;;;;;19.27;18.13;;;;;;;;;;5136381;27;20487;-79
2023/11/07 11:05:11;;;;;;;18.57;17.57;;;;;;;;;;5126553;27;20524;-78
2023/11/07 11:07:39;;;;;;;18.70;17.80;;;;;;;;;;5124191;27;20989;-83
2023/11/07 11:10:10;;;;;;;18.63;17.73;;;;;;;;;;5118874;27;20444;-78
2023/11/07 11:12:40;;;;;;;19.43;18.10;;;;;;;;;;5116478;28;20444;-78
2023/11/07 11:15:09;;;;;;;18.77;17.87;;;;;;;;;;5113457;28;20889;-78
2023/11/07 11:17:39;;;;;;;18.93;17.77;;;;;;;;;;5113433;28;20946;-76
2023/11/07 11:20:19;;;;;;;19.23;18.03;;;;;;;;;;5122857;27;20463;-77
2023/11/07 11:22:49;;;;;;;18.97;17.97;;;;;;;;;;5134765;27;20475;-83
2023/11/07 11:25:24;;;;;;;18.60;17.60;;;;;;;;;;5136482;27;21095;-77
2023/11/07 11:27:53;;;;;;;19.20;18.10;;;;;;;;;;5113959;28;21030;-77
2023/11/07 11:30:28;;;;;;;18.70;17.70;;;;;;;;;;5114637;28;20471;-84
2023/11/07 11:33:06;;;;;;;19.40;18.30;;;;;;;;;;5119813;28;20454;-83
2023/11/07 11:35:35;;;;;;;19.20;18.10;;;;;;;;;;5124283;27;20447;-77
2023/11/07 11:38:09;;;;;;;19.40;18.40;;;;;;;;;;5112949;28;20482;-74
2023/11/07 11:40:54;;;;;;;20.10;19.00;;;;;;;;;;5112831;28;20928;-76
2023/11/07 11:43:22;;;;;;;19.40;18.30;;;;;;;;;;5113308;28;20463;-82
2023/11/07 11:45:49;;;;;;;19.67;18.57;;;;;;;;;;5121824;27;20522;-80
2023/11/07 11:48:18;;;;;;;19.80;18.70;;;;;;;;;;5141334;27;20478;-80
2023/11/07 11:50:45;;;;;;;20.50;19.37;;;;;;;;;;5141611;27;20447;-80
2023/11/07 11:53:32;;;;;;;20.03;18.93;;;;;;;;;;5141512;27;20470;-81
2023/11/07 11:56:11;;;;;;;21.30;20.10;;;;;;;;;;5141304;27;20813;-80
2023/11/07 11:58:39;;;;;;;20.07;18.87;;;;;;;;;;5141517;27;20473;-80
2023/11/07 12:01:06;;;;;;;19.50;18.30;;;;;;;;;;5141717;27;20475;-81
2023/11/07 12:03:37;;;;;;;19.27;18.17;;;;;;;;;;5142031;27;20461;-80
2023/11/07 12:06:06;;;;;;;20.23;19.03;;;;;;;;;;5120779;27;20950;-81
2023/11/07 12:08:34;;;;;;;19.70;18.60;;;;;;;;;;5129828;27;20509;-80
2023/11/07 12:11:02;;;;;;;20.27;19.07;;;;;;;;;;5141480;27;20431;-81
2023/11/07 12:13:31;;;;;;;19.87;18.60;;;;;;;;;;5141350;27;20410;-81
2023/11/07 12:15:58;;;;;;;20.07;18.93;;;;;;;;;;5141593;27;20443;-80
2023/11/07 12:18:39;;;;;;;19.73;18.53;;;;;;;;;;5141099;27;20455;-80
2023/11/07 12:21:06;;;;;;;20.53;19.33;;;;;;;;;;5137065;27;20971;-76
2023/11/07 12:23:34;;;;;;;20.07;18.97;;;;;;;;;;5132748;27;20470;-76
2023/11/07 12:26:02;;;;;;;20.53;19.40;;;;;;;;;;5124377;27;20455;-77
2023/11/07 12:28:30;;;;;;;20.27;18.90;;;;;;;;;;5122164;27;20468;-79
2023/11/07 12:30:58;;;;;;;23.00;21.47;;;;;;;;;;5120085;27;20451;-80
2023/11/07 12:33:25;;;;;;;20.63;19.53;;;;;;;;;;5131007;27;20482;-79
2023/11/07 12:35:56;;;;;;;20.47;18.97;;;;;;;;;;5133381;27;20451;-81
2023/11/07 12:38:24;;;;;;;20.47;19.27;;;;;;;;;;5131238;27;20842;-75
2023/11/07 12:40:51;;;;;;;20.63;19.33;;;;;;;;;;5132181;27;20447;-76
2023/11/07 12:43:18;;;;;;;20.70;19.40;;;;;;;;;;5122904;27;20470;-76
2023/11/07 12:45:47;;;;;;;20.80;19.30;;;;;;;;;;5118230;27;20444;-75
2023/11/07 12:48:25;;;;;;;22.00;20.50;;;;;;;;;;5110406;28;20535;-76
2023/11/07 12:50:53;;;;;;;20.50;19.30;;;;;;;;;;5111646;28;20454;-75
2023/11/07 12:53:20;;;;;;;21.07;19.87;;;;;;;;;;5112856;27;20459;-82
2023/11/07 12:55:51;;;;;;;22.93;19.03;;;;;;;;;;5116756;27;20447;-82
2023/11/07 12:58:27;;;;;;;20.93;19.70;;;;;;;;;;5132768;27;20474;-79
2023/11/07 13:00:59;;;;;;;20.47;19.27;;;;;;;;;;5136656;27;20452;-83
2023/11/07 13:03:31;;;;;;;23.43;21.90;;;;;;;;;;5121946;28;20541;-83
2023/11/07 13:05:58;;;;;;;19.63;18.53;;;;;;;;;;5120528;28;20480;-83
2023/11/07 13:08:29;;;;;;;21.53;20.13;;;;;;;;;;5121656;27;20484;-84
2023/11/07 13:11:07;;;;;;;20.67;19.47;;;;;;;;;;5120935;28;20440;-84
2023/11/07 13:13:35;;;;;;;20.70;19.60;;;;;;;;;;5122450;28;20444;-82
2023/11/07 13:16:04;;;;;;;21.43;20.13;;;;;;;;;;5120841;28;20444;-83
2023/11/07 13:18:31;;;;;;;20.63;19.53;;;;;;;;;;5122068;28;20446;-83
2023/11/07 13:20:58;;;;;;;21.00;19.90;;;;;;;;;;5121895;28;21061;-84
2023/11/07 13:23:25;;;;;;;21.07;19.97;;;;;;;;;;5120702;28;20479;-84
2023/11/07 13:25:52;;;;;;;20.00;18.97;;;;;;;;;;5120611;28;20443;-84
2023/11/07 13:28:20;;;;;;;20.20;19.00;;;;;;;;;;5120352;28;20433;-84
2023/11/07 13:30:48;;;;;;;19.87;18.77;;;;;;;;;;5121551;28;20799;-82
2023/11/07 13:33:16;;;;;;;21.23;19.60;;;;;;;;;;5120728;28;20456;-84
2023/11/07 13:35:47;;;;;;;20.83;19.73;;;;;;;;;;5121383;28;20418;-83
2023/11/07 13:38:14;;;;;;;20.50;19.20;;;;;;;;;;5121816;28;21046;-83
2023/11/07 13:40:41;;;;;;;21.70;20.17;;;;;;;;;;5121764;28;20939;-84
2023/11/07 13:43:09;;;;;;;20.77;19.57;;;;;;;;;;5133731;27;20486;-83
2023/11/07 13:45:36;;;;;;;19.80;18.80;;;;;;;;;;5123636;27;20431;-83
2023/11/07 13:48:03;;;;;;;20.30;19.10;;;;;;;;;;5121105;28;20812;-84
2023/11/07 13:50:32;;;;;;;20.93;19.73;;;;;;;;;;5120930;28;20497;-84
2023/11/07 13:52:59;;;;;;;20.27;18.90;;;;;;;;;;5119999;28;20916;-84
2023/11/07 13:55:27;;;;;;;21.67;20.27;;;;;;;;;;5131211;27;20459;-84
2023/11/07 13:57:54;;;;;;;20.17;19.07;;;;;;;;;;5141578;27;20463;-84
2023/11/07 14:00:21;;;;;;;20.47;19.33;;;;;;;;;;5141145;27;21219;-83
2023/11/07 14:02:49;;;;;;;19.63;18.63;;;;;;;;;;5141502;27;20471;-83
2023/11/07 14:05:16;;;;;;;19.90;18.80;;;;;;;;;;5140774;28;21065;-83
2023/11/07 14:07:45;;;;;;;20.97;19.77;;;;;;;;;;5141737;28;20966;-83
2023/11/07 14:10:13;;;;;;;20.17;19.07;;;;;;;;;;5142259;28;20446;-81
2023/11/07 14:12:40;;;;;;;21.00;19.90;;;;;;;;;;5143045;28;20443;-84
2023/11/07 14:15:10;;;;;;;22.17;20.47;;;;;;;;;;5140271;28;20458;-84
2023/11/07 14:17:39;;;;;;;20.80;19.70;;;;;;;;;;5141792;28;20434;-83
2023/11/07 14:20:09;;;;;;;19.53;18.27;;;;;;;;;;5140612;28;20458;-86
2023/11/07 14:22:37;;;;;;;20.10;19.00;;;;;;;;;;5141016;28;20454;-84
2023/11/07 14:25:07;;;;;;;20.67;19.43;;;;;;;;;;5139427;28;20435;-84